createdAt,value
2022-07-25T00:00:51.287Z,101058.63
2022-07-25T00:04:00.635Z,101055.38
2022-07-25T00:07:16.785Z,101052.13
2022-07-25T00:15:51.737Z,101048.28
2022-07-25T00:18:36.771Z,101043.41
2022-07-25T00:21:45.729Z,101043.59
2022-07-25T00:25:04.444Z,101029.16
2022-07-25T00:30:54.475Z,101036.50
2022-07-25T00:33:47.504Z,101035.84
2022-07-25T00:36:34.340Z,101032.56
2022-07-25T00:39:49.413Z,101039.25
2022-07-25T00:42:38.732Z,101043.78
2022-07-25T00:45:23.827Z,101035.81
2022-07-25T00:48:07.244Z,101038.56
2022-07-25T00:51:22.068Z,101016.84
2022-07-25T00:54:08.277Z,101030.09
2022-07-25T00:57:12.049Z,101030.31
2022-07-25T01:00:22.414Z,101011.44
2022-07-25T01:03:16.366Z,101008.34
2022-07-25T01:06:22.273Z,100998.81
2022-07-25T01:15:12.077Z,101002.75
2022-07-25T01:21:06.928Z,101004.81
2022-07-25T01:24:09.302Z,101003.34
2022-07-25T01:27:31.438Z,100998.09
2022-07-25T01:30:16.377Z,100995.16
2022-07-25T01:33:09.726Z,100999.38
2022-07-25T01:36:08.734Z,101001.50
2022-07-25T01:38:54.287Z,100985.00
2022-07-25T01:41:37.468Z,100979.75
2022-07-25T01:44:21.014Z,100998.25
2022-07-25T01:47:24.922Z,100992.38
2022-07-25T01:50:19.025Z,100986.34
2022-07-25T01:53:16.530Z,100972.38
2022-07-25T01:56:08.964Z,100975.97
2022-07-25T01:58:48.582Z,100978.47
2022-07-25T02:04:34.675Z,100959.34
2022-07-25T02:10:43.102Z,100945.78
2022-07-25T02:14:10.623Z,100941.56
2022-07-25T02:16:58.000Z,100956.47
2022-07-25T02:23:36.019Z,100947.66
2022-07-25T02:26:38.033Z,100928.56
2022-07-25T02:29:58.093Z,100927.53
2022-07-25T02:32:57.128Z,100921.44
2022-07-25T02:35:55.077Z,100910.16
2022-07-25T02:38:47.935Z,100911.84
2022-07-25T02:41:54.406Z,100907.31
2022-07-25T02:44:56.771Z,100905.50
2022-07-25T02:50:44.044Z,100895.25
2022-07-25T02:56:40.088Z,100898.91
2022-07-25T02:59:48.473Z,100906.63
2022-07-25T03:02:51.624Z,100884.78
2022-07-25T03:05:31.132Z,100883.84
2022-07-25T03:11:14.300Z,100881.03
2022-07-25T03:14:07.451Z,100873.22
2022-07-25T03:17:13.468Z,100864.25
2022-07-25T03:20:09.627Z,100873.59
2022-07-25T03:22:57.427Z,100869.91
2022-07-25T03:25:46.129Z,100856.75
2022-07-25T03:28:31.593Z,100852.38
2022-07-25T03:31:28.577Z,100846.84
2022-07-25T03:34:08.067Z,100854.63
2022-07-25T03:37:07.199Z,100851.78
2022-07-25T03:39:48.038Z,100844.75
2022-07-25T03:42:41.116Z,100845.47
2022-07-25T03:45:24.558Z,100836.66
2022-07-25T03:48:27.826Z,100832.19
2022-07-25T03:51:21.933Z,100828.44
2022-07-25T03:54:25.856Z,100821.09
2022-07-25T03:57:16.686Z,100825.28
2022-07-25T04:00:08.285Z,100819.72
2022-07-25T04:02:51.751Z,100817.69
2022-07-25T04:05:32.434Z,100817.88
2022-07-25T04:08:07.579Z,100812.03
2022-07-25T04:10:47.323Z,100807.63
2022-07-25T04:13:36.941Z,100809.44
2022-07-25T04:16:22.571Z,100797.72
2022-07-25T04:19:14.248Z,100796.03
2022-07-25T04:22:06.276Z,100789.41
2022-07-25T04:25:11.080Z,100787.13
2022-07-25T04:28:10.259Z,100777.50
2022-07-25T04:33:55.457Z,100776.25
2022-07-25T04:36:32.843Z,100766.16
2022-07-25T04:39:14.314Z,100773.25
2022-07-25T04:41:47.582Z,100753.56
2022-07-25T04:44:50.323Z,100761.25
2022-07-25T04:47:43.797Z,100746.13
2022-07-25T04:50:33.769Z,100749.22
2022-07-25T04:53:49.019Z,100738.81
2022-07-25T04:56:33.504Z,100747.03
2022-07-25T04:59:14.591Z,100734.91
2022-07-25T05:02:20.430Z,100733.44
2022-07-25T05:05:20.859Z,100725.88
2022-07-25T05:08:41.767Z,100726.97
2022-07-25T05:11:18.188Z,100723.13
2022-07-25T05:14:25.665Z,100718.34
2022-07-25T05:17:13.803Z,100722.63
2022-07-25T05:20:18.362Z,100715.34
2022-07-25T05:23:19.773Z,100714.28
2022-07-25T05:26:05.619Z,100708.72
2022-07-25T05:28:59.522Z,100716.25
2022-07-25T05:34:57.826Z,100684.59
2022-07-25T05:54:38.574Z,100671.00
2022-07-25T06:04:54.159Z,100668.78
2022-07-25T06:14:52.181Z,100665.59
2022-07-25T06:17:18.966Z,100669.81
2022-07-25T06:20:04.358Z,100655.50
2022-07-25T06:22:33.590Z,100654.47
2022-07-25T06:25:12.861Z,100647.06
2022-07-25T06:27:42.837Z,100643.25
2022-07-25T06:30:20.005Z,100646.56
2022-07-25T06:32:55.719Z,100636.84
2022-07-25T06:35:25.584Z,100640.34
2022-07-25T06:38:22.195Z,100640.63
2022-07-25T06:40:56.614Z,100626.00
2022-07-25T06:43:27.267Z,100630.44
2022-07-25T06:45:54.720Z,100623.53
2022-07-25T06:48:48.433Z,100634.81
2022-07-25T06:51:16.755Z,100628.63
2022-07-25T06:53:46.210Z,100619.97
2022-07-25T06:56:17.598Z,100618.31
2022-07-25T06:58:48.574Z,100621.84
2022-07-25T07:01:16.787Z,100625.78
2022-07-25T07:03:44.069Z,100621.41
2022-07-25T07:06:11.895Z,100619.28
2022-07-25T07:08:38.759Z,100609.47
2022-07-25T07:11:07.830Z,100606.31
2022-07-25T07:13:38.007Z,100601.34
2022-07-25T07:16:05.802Z,100600.47
2022-07-25T07:18:32.719Z,100610.25
2022-07-25T07:21:00.028Z,100597.94
2022-07-25T07:23:30.829Z,100594.13
2022-07-25T07:26:03.558Z,100595.25
2022-07-25T07:28:43.496Z,100584.59
2022-07-25T07:31:16.643Z,100585.09
2022-07-25T07:39:51.518Z,100563.63
2022-07-25T07:42:24.480Z,100562.41
2022-07-25T07:44:55.287Z,100555.38
2022-07-25T07:47:23.921Z,100560.06
2022-07-25T07:49:55.875Z,100560.19
2022-07-25T07:52:27.088Z,100547.63
2022-07-25T07:55:12.408Z,100545.59
2022-07-25T07:57:39.315Z,100547.41
2022-07-25T08:00:14.821Z,100534.78
2022-07-25T08:02:48.558Z,100533.50
2022-07-25T08:05:28.644Z,100534.34
2022-07-25T08:07:58.480Z,100528.28
2022-07-25T08:10:28.532Z,100534.03
2022-07-25T08:13:23.245Z,100527.47
2022-07-25T08:15:56.261Z,100519.28
2022-07-25T08:18:26.875Z,100520.16
2022-07-25T08:20:57.611Z,100524.25
2022-07-25T08:23:27.801Z,100517.50
2022-07-25T08:25:57.991Z,100517.69
2022-07-25T08:28:26.378Z,100517.69
2022-07-25T08:30:56.495Z,100511.94
2022-07-25T08:33:23.506Z,100520.72
2022-07-25T08:35:56.474Z,100504.69
2022-07-25T08:38:27.053Z,100499.97
2022-07-25T08:48:07.790Z,100493.38
2022-07-25T10:08:08.019Z,100415.22
2022-07-25T10:10:42.769Z,100419.69
2022-07-25T10:13:32.805Z,100417.16
2022-07-25T10:16:06.678Z,100413.44
2022-07-25T10:18:52.746Z,100411.78
2022-07-25T10:21:39.412Z,100408.22
2022-07-25T10:24:16.484Z,100407.66
2022-07-25T10:32:10.860Z,100415.00
2022-07-25T10:34:55.977Z,100411.78
2022-07-25T10:37:31.709Z,100401.53
2022-07-25T10:39:59.246Z,100403.63
2022-07-25T10:42:33.685Z,100400.84
2022-07-25T10:45:07.086Z,100395.00
2022-07-25T10:47:45.636Z,100394.88
2022-07-25T10:50:39.987Z,100399.97
2022-07-25T10:53:21.775Z,100391.00
2022-07-25T10:56:08.779Z,100399.34
2022-07-25T10:59:07.802Z,100391.41
2022-07-25T11:01:38.783Z,100375.94
2022-07-25T11:04:24.970Z,100389.13
2022-07-25T11:07:30.654Z,100395.00
2022-07-25T11:10:43.530Z,100388.69
2022-07-25T11:13:28.772Z,100375.03
2022-07-25T11:16:03.182Z,100380.91
2022-07-25T11:18:43.431Z,100385.91
2022-07-25T15:26:34.346Z,100458.31
2022-07-25T15:29:33.102Z,100456.97
2022-07-25T15:32:12.103Z,100458.56
2022-07-25T15:34:41.155Z,100454.94
2022-07-25T16:04:35.866Z,100543.09
2022-07-25T16:07:02.729Z,100575.59
2022-07-25T16:09:35.332Z,100613.78
2022-07-25T16:12:04.649Z,100643.88
2022-07-25T16:14:34.824Z,100650.31
2022-07-25T16:17:03.058Z,100615.78
2022-07-25T16:19:30.693Z,100580.75
2022-07-25T16:21:57.404Z,100590.34
2022-07-25T16:24:24.720Z,100581.25
2022-07-25T16:26:54.618Z,100597.97
2022-07-25T16:33:17.265Z,100572.31
2022-07-25T16:35:46.364Z,100556.28
2022-07-25T16:38:14.953Z,100539.03
2022-07-25T16:40:42.219Z,100537.44
2022-07-25T16:43:08.978Z,100518.59
2022-07-25T16:45:36.971Z,100533.66
2022-07-25T16:48:05.915Z,100539.69
2022-07-25T16:50:32.661Z,100559.00
2022-07-25T16:53:01.007Z,100560.19
2022-07-25T16:55:28.911Z,100570.63
2022-07-25T16:58:02.504Z,100562.78
2022-07-25T17:00:29.262Z,100545.09
2022-07-25T17:02:59.178Z,100539.88
2022-07-25T17:05:26.879Z,100542.06
2022-07-25T17:07:59.487Z,100536.34
2022-07-25T17:10:28.372Z,100540.38
2022-07-25T17:12:56.292Z,100530.28
2022-07-25T17:15:25.576Z,100540.88
2022-07-25T17:17:52.729Z,100530.28
2022-07-25T17:20:22.643Z,100534.06
2022-07-25T17:22:52.506Z,100538.44
2022-07-25T17:25:19.926Z,100533.81
2022-07-25T17:27:48.819Z,100528.13
2022-07-25T17:30:19.826Z,100540.31
2022-07-25T17:32:47.884Z,100535.53
2022-07-25T17:35:20.335Z,100546.00
2022-07-25T17:37:49.925Z,100556.34
2022-07-25T17:41:03.041Z,100560.34
2022-07-25T17:43:38.493Z,100553.16
2022-07-25T17:46:06.552Z,100559.13
2022-07-25T17:48:35.036Z,100553.03
2022-07-25T17:51:02.122Z,100558.25
2022-07-25T17:53:28.831Z,100559.13
2022-07-25T17:55:56.358Z,100568.63
2022-07-25T17:58:23.288Z,100564.53
2022-07-25T18:00:50.730Z,100568.41
2022-07-25T18:03:18.998Z,100570.84
2022-07-25T18:05:46.276Z,100567.75
2022-07-25T18:08:13.994Z,100567.53
2022-07-25T18:10:42.759Z,100558.88
2022-07-25T18:13:09.684Z,100560.91
2022-07-25T18:20:01.918Z,100573.91
2022-07-25T18:22:28.720Z,100568.06
2022-07-25T18:24:56.545Z,100589.41
2022-07-25T18:27:23.338Z,100576.41
2022-07-25T18:29:52.323Z,100594.38
2022-07-25T18:32:19.279Z,100579.84
2022-07-25T18:34:46.674Z,100582.97
2022-07-25T18:37:13.506Z,100575.31
2022-07-25T18:39:44.593Z,100562.56
2022-07-25T18:42:12.406Z,100567.97
2022-07-25T18:44:40.815Z,100570.03
2022-07-25T18:47:07.746Z,100570.88
2022-07-25T18:49:35.927Z,100571.09
2022-07-25T18:52:02.887Z,100563.22
2022-07-25T18:54:31.895Z,100555.44
2022-07-25T18:56:58.654Z,100557.34
2022-07-25T18:59:30.135Z,100561.75
2022-07-25T19:01:59.098Z,100555.56
2022-07-25T19:04:26.490Z,100555.66
2022-07-25T19:06:56.968Z,100558.44
2022-07-25T19:09:25.927Z,100565.59
2022-07-25T19:11:54.301Z,100566.66
2022-07-25T19:14:24.080Z,100560.72
2022-07-25T19:16:51.271Z,100570.41
2022-07-25T19:19:18.238Z,100576.81
2022-07-25T19:21:46.151Z,100578.63
2022-07-25T19:24:13.098Z,100588.66
2022-07-25T19:26:47.867Z,100595.31
2022-07-25T19:29:16.730Z,100601.81
2022-07-25T19:31:46.077Z,100609.22
2022-07-25T19:34:13.933Z,100607.94
2022-07-25T19:36:45.878Z,100617.22
2022-07-25T19:39:13.215Z,100610.91
2022-07-25T19:41:46.616Z,100616.78
2022-07-25T19:44:16.902Z,100625.63
2022-07-25T19:46:45.212Z,100623.50
2022-07-25T19:49:13.054Z,100629.25
2022-07-25T19:51:42.932Z,100630.44
2022-07-25T19:54:11.260Z,100634.38
2022-07-25T19:56:42.533Z,100644.16
2022-07-25T19:59:10.740Z,100646.19
2022-07-25T20:01:39.657Z,100642.13
2022-07-25T20:04:09.068Z,100652.88
2022-07-25T20:06:36.865Z,100651.50
2022-07-25T20:09:06.045Z,100656.81
2022-07-25T20:11:33.255Z,100646.34
2022-07-25T20:14:05.320Z,100654.44
2022-07-25T20:16:38.596Z,100652.00
2022-07-25T20:19:09.314Z,100648.78
2022-07-25T20:21:40.706Z,100654.09
2022-07-25T20:24:10.727Z,100656.03
2022-07-25T20:26:39.517Z,100657.19
2022-07-25T20:29:07.969Z,100651.28
2022-07-25T20:31:39.335Z,100656.91
2022-07-25T20:34:06.283Z,100660.00
2022-07-25T20:36:37.911Z,100662.28
2022-07-25T20:39:05.767Z,100661.84
2022-07-25T20:41:34.072Z,100664.88
2022-07-25T20:44:02.871Z,100665.28
2022-07-25T20:46:30.058Z,100664.72
2022-07-25T20:48:57.731Z,100657.13
2022-07-25T20:51:25.943Z,100672.31
2022-07-25T20:53:53.680Z,100668.16
2022-07-25T20:56:21.840Z,100669.97
2022-07-25T20:58:48.547Z,100680.63
2022-07-25T21:01:18.361Z,100684.13
2022-07-25T21:03:45.491Z,100682.53
2022-07-25T21:06:13.821Z,100688.78
2022-07-25T21:08:42.880Z,100681.66
2022-07-25T21:11:16.779Z,100686.03
2022-07-25T21:13:46.068Z,100685.34
2022-07-25T21:16:13.121Z,100689.06
2022-07-25T21:18:43.153Z,100683.47
2022-07-25T21:21:12.382Z,100690.97
2022-07-25T21:23:44.858Z,100699.06
2022-07-25T21:26:13.291Z,100693.75
2022-07-25T21:28:40.523Z,100697.25
2022-07-25T21:31:11.592Z,100706.38
2022-07-25T21:33:38.593Z,100696.88
2022-07-25T21:36:06.577Z,100696.97
2022-07-25T21:38:34.935Z,100693.75
2022-07-25T21:41:01.969Z,100706.94
2022-07-25T21:43:35.382Z,100706.94
2022-07-25T21:46:04.416Z,100704.47
2022-07-25T21:48:51.863Z,100705.34
2022-07-25T21:51:23.589Z,100711.78
2022-07-25T21:53:57.167Z,100702.09
2022-07-25T21:56:23.819Z,100699.34
2022-07-25T21:59:15.769Z,100706.56
2022-07-25T22:01:46.583Z,100702.25
2022-07-25T22:04:13.367Z,100704.91
2022-07-25T22:06:47.637Z,100708.41
2022-07-25T22:09:16.060Z,100693.50
2022-07-25T22:11:46.097Z,100706.72
2022-07-25T22:14:15.192Z,100709.38
2022-07-25T22:16:43.649Z,100704.13
2022-07-25T22:19:16.624Z,100693.44
2022-07-25T22:21:46.183Z,100696.25
2022-07-25T22:24:13.894Z,100701.78
2022-07-25T22:26:48.722Z,100694.09
2022-07-25T22:29:17.719Z,100697.69
2022-07-25T22:31:44.986Z,100695.97
2022-07-25T22:34:11.725Z,100701.38
2022-07-25T22:36:45.558Z,100703.09
2022-07-25T22:39:12.752Z,100692.75
2022-07-25T22:41:40.684Z,100691.97
2022-07-25T22:44:11.064Z,100688.72
2022-07-25T22:46:38.031Z,100699.47
2022-07-25T22:49:05.209Z,100695.22
2022-07-25T22:51:32.338Z,100699.00
2022-07-25T22:54:01.299Z,100691.09
2022-07-25T22:56:29.442Z,100694.91
2022-07-25T22:58:58.377Z,100696.78
2022-07-25T23:01:27.632Z,100703.41
2022-07-25T23:03:54.835Z,100700.06
2022-07-25T23:06:22.858Z,100698.28
2022-07-25T23:08:51.114Z,100699.97
2022-07-25T23:11:19.503Z,100698.28
2022-07-25T23:13:49.766Z,100699.88
2022-07-25T23:16:17.574Z,100704.34
2022-07-25T23:18:46.448Z,100698.28
2022-07-25T23:21:13.311Z,100690.47
2022-07-25T23:23:42.890Z,100695.88
2022-07-25T23:26:16.154Z,100691.53
2022-07-25T23:28:43.578Z,100693.13
2022-07-25T23:31:10.698Z,100690.66
2022-07-25T23:33:37.467Z,100699.66
2022-07-25T23:36:06.041Z,100698.91
2022-07-25T23:38:32.739Z,100698.50
2022-07-25T23:41:00.624Z,100701.06
2022-07-25T23:43:55.765Z,100704.09
2022-07-25T23:46:27.981Z,100701.59
2022-07-25T23:48:58.190Z,100701.78
2022-07-25T23:51:26.996Z,100706.16
2022-07-25T23:53:57.921Z,100695.72
2022-07-25T23:56:25.096Z,100703.69
2022-07-25T23:58:55.316Z,100693.31
